• Join FlightAware (Why Join?)
  • Login
  • US Flag 
01:50PM EDT


 

Airport Tracker/Info


-or-


 

Live Flight TrackerFlight Track Log ✈ SWA1377 ✈ 26-Apr-2013 ✈ KBUF - KBWI

Flight Track Log - Related Links

Times and Time Zones

All times are in EDT time to prevent confusion due to time zone crossing. See the SWA1377 flight status page for this flight to view local times or setup timezone preferences in your user account.

Time Position Orientation Groundspeed Altitude Reporting Facility
EDT Latitude Longitude Course Direction KTS MPH feet Rate Location/Type
12:26PM 42.9000 -78.7667 200° South 153 176 3,000  Level Buffalo TRACON
12:28PM 42.8194 -78.7944 194° South 270 311 6,000 2,580 Climbing Cleveland Center
12:29PM 42.7467 -78.8050 186° South 276 318 9,300 2,340 Climbing Cleveland Center
12:30PM 42.6608 -78.7819 169° South 282 325 10,700 1,860 Climbing Cleveland Center
12:31PM 42.5603 -78.7508 167° South 332 382 13,100 2,700 Climbing Cleveland Center
12:32PM 42.4472 -78.7206 169° South 371 427 16,200 2,880 Climbing Cleveland Center
12:33PM 42.3319 -78.6817 166° South 413 475 18,900 2,700 Climbing Cleveland Center
12:34PM 42.2083 -78.6461 168° South 436 502 21,600 2,040 Climbing Cleveland Center
12:35PM 42.0819 -78.5575 153° Southeast 457 526 23,000 660 Climbing Cleveland Center
12:36PM 41.9856 -78.4267 135° Southeast 473 544 23,000  Level Cleveland Center
12:38PM 41.7694 -78.1439 136° Southeast 490 564 23,000  Level New York Center
12:39PM 41.6714 -78.0136 135° Southeast 496 571 23,000  Level New York Center
12:40PM 41.5706 -77.8864 137° Southeast 496 571 23,000  Level New York Center
12:41PM 41.4722 -77.7539 135° Southeast 496 571 23,000 -180 Level New York Center
12:42PM 41.3733 -77.6275 136° Southeast 496 571 22,700 -720 Descending New York Center
12:43PM 41.2744 -77.5014 136° Southeast 496 571 21,700 -1,080 Descending New York Center
12:44PM 41.1792 -77.3764 135° Southeast 496 571 20,600 -1,080 Descending New York Center
12:45PM 41.0739 -77.2475 137° Southeast 485 558 19,600 -1,020 Descending New York Center
12:46PM 40.9800 -77.1314 137° Southeast 480 552 18,600 -780 Descending New York Center
12:47PM 40.8906 -77.0133 135° Southeast 469 540 18,100 -780 Descending New York Center
12:48PM 40.8083 -76.9097 136° Southeast 459 528 17,100 -1,020 Descending New York Center
12:49PM 40.7161 -76.7975 137° Southeast 453 521 16,100 -1,080 Descending New York Center
12:50PM 40.6181 -76.6794 138° Southeast 442 509 15,000 -600 Descending New York Center
12:51PM 40.5381 -76.5689 134° Southeast 442 509 15,000  Level New York Center
12:52PM 40.4606 -76.4475 130° Southeast 429 494 15,000  Level New York Center
12:53PM 40.3589 -76.4392 176° South 381 438 15,000 -120 Level New York Center
12:54PM 40.2472 -76.4628 189° South 391 450 14,800 -720 Descending New York Center
12:55PM 40.1253 -76.4828 187° South 407 468 13,600 -1,140 Descending New York Center
12:56PM 40.0181 -76.5036 188° South 407 468 12,600 -840 Descending New York Center
12:57PM 39.9233 -76.5203 188° South 396 456 12,000 -720 Descending New York Center
12:59PM 39.7000 -76.5500 186° South 302 348 10,400 -960 Descending Potomac TRACON
01:00PM 39.6167 -76.5333 171° South 294 338 8,900 -1,500 Descending Potomac TRACON
01:01PM 39.5333 -76.5167 171° South 289 333 7,400 -1,440 Descending Potomac TRACON
01:02PM 39.4667 -76.5000 169° South 282 325 6,100 -1,320 Descending Potomac TRACON
01:03PM 39.3833 -76.4667 163° South 270 311 4,800 -1,140 Descending Potomac TRACON
01:04PM 39.3167 -76.4500 169° South 266 306 3,900 -420 Descending Potomac TRACON
01:05PM 39.2500 -76.4500 180° South 261 300 4,000  Climbing Potomac TRACON
01:06PM 39.1833 -76.4500 180° South 232 267 3,900 -300 Descending Potomac TRACON
01:07PM 39.1167 -76.4500 180° South 224 258 3,500 -540 Descending Potomac TRACON
01:08PM 39.0667 -76.4833 207° Southwest 213 245 2,900 -420 Descending Potomac TRACON
01:09PM 39.0500 -76.5500 252° West 179 206 2,700 -540 Descending Potomac TRACON
01:10PM 39.0833 -76.6000 311° West 154 177 1,900 -780 Descending Potomac TRACON
01:11PM 39.1167 -76.6167 339° North 133 153 1,200 -720 Descending Potomac TRACON
01:12PM 39.1500 -76.6500 322° Northwest 129 148 500 -720 Descending Potomac TRACON
01:14PM 39.1667 -76.6667 322° Northwest  Level FlightAware Approximate
01:21PM 39.1754 -76.6683 322° Northwest  Level Estimated
01:22PM 39.1754 -76.6683 322° Northwest  Level Estimated